sensor_id;sensor_type;location;lat;lon;timestamp;P1;durP1;ratioP1;P2;durP2;ratioP2
51326;SDS011;37412;52.836;6.362;2023-07-31T00:01:39;4.43;;;3.03;;
51326;SDS011;37412;52.836;6.362;2023-07-31T00:04:25;3.67;;;2.70;;
51326;SDS011;37412;52.836;6.362;2023-07-31T00:07:11;4.35;;;2.70;;
51326;SDS011;37412;52.836;6.362;2023-07-31T00:09:57;4.13;;;3.05;;
51326;SDS011;37412;52.836;6.362;2023-07-31T00:12:44;3.92;;;3.03;;
51326;SDS011;37412;52.836;6.362;2023-07-31T00:15:30;3.57;;;2.73;;
51326;SDS011;37412;52.836;6.362;2023-07-31T00:18:16;3.35;;;2.70;;
51326;SDS011;37412;52.836;6.362;2023-07-31T00:21:02;4.72;;;2.78;;
51326;SDS011;37412;52.836;6.362;2023-07-31T00:23:48;3.13;;;2.53;;
51326;SDS011;37412;52.836;6.362;2023-07-31T00:26:34;3.57;;;2.90;;
51326;SDS011;37412;52.836;6.362;2023-07-31T00:29:20;4.25;;;2.65;;
51326;SDS011;37412;52.836;6.362;2023-07-31T00:32:06;5.50;;;2.90;;
51326;SDS011;37412;52.836;6.362;2023-07-31T00:34:52;3.33;;;2.55;;
51326;SDS011;37412;52.836;6.362;2023-07-31T00:37:38;3.10;;;2.40;;
51326;SDS011;37412;52.836;6.362;2023-07-31T00:40:24;3.60;;;2.50;;
51326;SDS011;37412;52.836;6.362;2023-07-31T00:43:10;4.60;;;2.50;;
51326;SDS011;37412;52.836;6.362;2023-07-31T00:45:56;4.50;;;2.28;;
51326;SDS011;37412;52.836;6.362;2023-07-31T00:48:42;3.40;;;2.10;;
51326;SDS011;37412;52.836;6.362;2023-07-31T00:51:28;2.63;;;1.90;;
51326;SDS011;37412;52.836;6.362;2023-07-31T00:54:14;2.55;;;1.98;;
51326;SDS011;37412;52.836;6.362;2023-07-31T00:57:00;3.53;;;1.90;;
51326;SDS011;37412;52.836;6.362;2023-07-31T00:59:46;2.23;;;1.80;;
51326;SDS011;37412;52.836;6.362;2023-07-31T01:02:32;2.67;;;1.67;;
51326;SDS011;37412;52.836;6.362;2023-07-31T01:05:19;1.92;;;1.65;;
51326;SDS011;37412;52.836;6.362;2023-07-31T01:08:28;2.28;;;1.60;;
51326;SDS011;37412;52.836;6.362;2023-07-31T01:11:34;1.35;;;1.20;;
51326;SDS011;37412;52.836;6.362;2023-07-31T01:14:35;1.67;;;1.30;;
51326;SDS011;37412;52.836;6.362;2023-07-31T01:17:21;1.60;;;1.10;;
51326;SDS011;37412;52.836;6.362;2023-07-31T01:20:16;2.38;;;1.00;;
51326;SDS011;37412;52.836;6.362;2023-07-31T01:23:22;1.80;;;0.97;;
51326;SDS011;37412;52.836;6.362;2023-07-31T01:26:23;2.33;;;0.90;;
51326;SDS011;37412;52.836;6.362;2023-07-31T01:29:16;2.40;;;1.00;;
51326;SDS011;37412;52.836;6.362;2023-07-31T01:32:11;1.45;;;0.80;;
51326;SDS011;37412;52.836;6.362;2023-07-31T01:34:58;2.00;;;1.05;;
51326;SDS011;37412;52.836;6.362;2023-07-31T01:37:45;1.60;;;0.80;;
51326;SDS011;37412;52.836;6.362;2023-07-31T01:40:31;1.83;;;0.90;;
51326;SDS011;37412;52.836;6.362;2023-07-31T01:43:17;1.50;;;1.00;;
51326;SDS011;37412;52.836;6.362;2023-07-31T01:46:03;1.40;;;0.93;;
51326;SDS011;37412;52.836;6.362;2023-07-31T01:48:50;1.42;;;0.95;;
51326;SDS011;37412;52.836;6.362;2023-07-31T01:51:36;2.90;;;1.00;;
51326;SDS011;37412;52.836;6.362;2023-07-31T01:54:22;1.20;;;1.00;;
51326;SDS011;37412;52.836;6.362;2023-07-31T01:57:08;2.28;;;1.00;;
51326;SDS011;37412;52.836;6.362;2023-07-31T01:59:54;1.50;;;0.88;;
51326;SDS011;37412;52.836;6.362;2023-07-31T02:02:40;1.27;;;1.00;;
51326;SDS011;37412;52.836;6.362;2023-07-31T02:05:25;1.02;;;0.80;;
51326;SDS011;37412;52.836;6.362;2023-07-31T02:08:12;1.00;;;0.80;;
51326;SDS011;37412;52.836;6.362;2023-07-31T02:10:58;1.67;;;0.73;;
51326;SDS011;37412;52.836;6.362;2023-07-31T02:13:44;1.45;;;0.70;;
51326;SDS011;37412;52.836;6.362;2023-07-31T02:16:30;3.25;;;0.85;;
51326;SDS011;37412;52.836;6.362;2023-07-31T02:19:15;1.20;;;0.80;;
51326;SDS011;37412;52.836;6.362;2023-07-31T02:22:01;0.67;;;0.60;;
51326;SDS011;37412;52.836;6.362;2023-07-31T02:24:47;2.20;;;0.65;;
51326;SDS011;37412;52.836;6.362;2023-07-31T02:27:33;1.13;;;0.83;;
51326;SDS011;37412;52.836;6.362;2023-07-31T02:30:19;1.17;;;0.90;;
51326;SDS011;37412;52.836;6.362;2023-07-31T02:33:05;1.57;;;0.97;;
51326;SDS011;37412;52.836;6.362;2023-07-31T02:35:51;2.30;;;0.98;;
51326;SDS011;37412;52.836;6.362;2023-07-31T02:38:37;1.00;;;0.90;;
51326;SDS011;37412;52.836;6.362;2023-07-31T02:41:23;1.42;;;0.90;;
51326;SDS011;37412;52.836;6.362;2023-07-31T02:44:08;1.53;;;0.97;;
51326;SDS011;37412;52.836;6.362;2023-07-31T02:46:55;1.00;;;0.90;;
51326;SDS011;37412;52.836;6.362;2023-07-31T02:49:41;1.20;;;1.00;;
51326;SDS011;37412;52.836;6.362;2023-07-31T02:52:27;1.65;;;1.15;;
51326;SDS011;37412;52.836;6.362;2023-07-31T02:55:13;1.23;;;1.08;;
51326;SDS011;37412;52.836;6.362;2023-07-31T02:57:59;1.85;;;1.20;;
51326;SDS011;37412;52.836;6.362;2023-07-31T03:00:45;1.90;;;1.40;;
51326;SDS011;37412;52.836;6.362;2023-07-31T03:03:31;3.85;;;1.40;;
51326;SDS011;37412;52.836;6.362;2023-07-31T03:06:17;1.92;;;1.40;;
51326;SDS011;37412;52.836;6.362;2023-07-31T03:09:02;3.17;;;1.13;;
51326;SDS011;37412;52.836;6.362;2023-07-31T03:11:48;1.20;;;1.10;;
51326;SDS011;37412;52.836;6.362;2023-07-31T03:14:34;1.90;;;1.20;;
51326;SDS011;37412;52.836;6.362;2023-07-31T03:17:20;3.03;;;1.60;;
51326;SDS011;37412;52.836;6.362;2023-07-31T03:20:06;2.60;;;1.40;;
51326;SDS011;37412;52.836;6.362;2023-07-31T03:22:53;2.40;;;1.60;;
51326;SDS011;37412;52.836;6.362;2023-07-31T03:25:41;4.15;;;1.67;;
51326;SDS011;37412;52.836;6.362;2023-07-31T03:28:40;2.47;;;1.48;;
51326;SDS011;37412;52.836;6.362;2023-07-31T03:31:26;2.38;;;1.40;;
51326;SDS011;37412;52.836;6.362;2023-07-31T03:34:12;3.40;;;1.60;;
51326;SDS011;37412;52.836;6.362;2023-07-31T03:36:58;2.45;;;1.20;;
51326;SDS011;37412;52.836;6.362;2023-07-31T03:39:44;2.88;;;1.00;;
51326;SDS011;37412;52.836;6.362;2023-07-31T03:42:30;2.15;;;1.00;;
51326;SDS011;37412;52.836;6.362;2023-07-31T03:45:16;2.90;;;1.00;;
51326;SDS011;37412;52.836;6.362;2023-07-31T03:48:02;2.20;;;1.10;;
51326;SDS011;37412;52.836;6.362;2023-07-31T03:50:48;3.63;;;1.48;;
51326;SDS011;37412;52.836;6.362;2023-07-31T03:53:34;2.97;;;1.23;;
51326;SDS011;37412;52.836;6.362;2023-07-31T03:56:20;2.97;;;1.27;;
51326;SDS011;37412;52.836;6.362;2023-07-31T03:59:06;3.72;;;1.40;;
51326;SDS011;37412;52.836;6.362;2023-07-31T04:01:52;4.82;;;2.10;;
51326;SDS011;37412;52.836;6.362;2023-07-31T04:04:38;5.28;;;2.45;;
51326;SDS011;37412;52.836;6.362;2023-07-31T04:07:24;7.05;;;3.00;;
51326;SDS011;37412;52.836;6.362;2023-07-31T04:10:09;6.32;;;3.08;;
51326;SDS011;37412;52.836;6.362;2023-07-31T04:12:55;10.35;;;4.07;;
51326;SDS011;37412;52.836;6.362;2023-07-31T04:15:41;12.30;;;4.90;;
51326;SDS011;37412;52.836;6.362;2023-07-31T04:18:27;10.98;;;4.75;;
51326;SDS011;37412;52.836;6.362;2023-07-31T04:21:13;10.65;;;4.70;;
51326;SDS011;37412;52.836;6.362;2023-07-31T04:23:59;12.03;;;4.60;;
51326;SDS011;37412;52.836;6.362;2023-07-31T04:26:45;9.93;;;4.28;;
51326;SDS011;37412;52.836;6.362;2023-07-31T04:29:31;8.68;;;4.47;;
51326;SDS011;37412;52.836;6.362;2023-07-31T04:32:17;11.05;;;4.88;;
51326;SDS011;37412;52.836;6.362;2023-07-31T04:35:03;11.35;;;4.72;;
51326;SDS011;37412;52.836;6.362;2023-07-31T04:37:49;12.43;;;5.20;;
51326;SDS011;37412;52.836;6.362;2023-07-31T04:40:35;12.20;;;4.90;;
51326;SDS011;37412;52.836;6.362;2023-07-31T04:43:21;13.05;;;4.93;;
51326;SDS011;37412;52.836;6.362;2023-07-31T04:46:07;12.82;;;5.20;;
51326;SDS011;37412;52.836;6.362;2023-07-31T04:48:53;13.23;;;4.97;;
51326;SDS011;37412;52.836;6.362;2023-07-31T04:51:38;15.70;;;5.70;;
51326;SDS011;37412;52.836;6.362;2023-07-31T04:54:24;13.20;;;5.68;;
51326;SDS011;37412;52.836;6.362;2023-07-31T04:57:10;15.10;;;6.10;;
51326;SDS011;37412;52.836;6.362;2023-07-31T04:59:56;16.75;;;5.72;;
51326;SDS011;37412;52.836;6.362;2023-07-31T05:02:42;14.93;;;5.60;;
51326;SDS011;37412;52.836;6.362;2023-07-31T05:05:28;17.75;;;6.43;;
51326;SDS011;37412;52.836;6.362;2023-07-31T05:08:14;18.95;;;6.55;;
51326;SDS011;37412;52.836;6.362;2023-07-31T05:11:00;19.10;;;6.70;;
51326;SDS011;37412;52.836;6.362;2023-07-31T05:13:46;18.27;;;6.72;;
51326;SDS011;37412;52.836;6.362;2023-07-31T05:16:31;20.73;;;6.93;;
51326;SDS011;37412;52.836;6.362;2023-07-31T05:19:17;20.48;;;7.28;;
51326;SDS011;37412;52.836;6.362;2023-07-31T05:22:03;21.13;;;7.03;;
51326;SDS011;37412;52.836;6.362;2023-07-31T05:24:49;21.70;;;7.30;;
51326;SDS011;37412;52.836;6.362;2023-07-31T05:27:35;21.87;;;7.60;;
51326;SDS011;37412;52.836;6.362;2023-07-31T05:30:21;19.77;;;7.60;;
51326;SDS011;37412;52.836;6.362;2023-07-31T05:33:07;22.00;;;7.77;;
51326;SDS011;37412;52.836;6.362;2023-07-31T05:35:53;22.08;;;8.02;;
51326;SDS011;37412;52.836;6.362;2023-07-31T05:38:39;21.25;;;7.47;;
51326;SDS011;37412;52.836;6.362;2023-07-31T05:41:25;18.75;;;7.15;;
51326;SDS011;37412;52.836;6.362;2023-07-31T05:44:11;22.70;;;7.00;;
51326;SDS011;37412;52.836;6.362;2023-07-31T05:46:56;22.77;;;7.93;;
51326;SDS011;37412;52.836;6.362;2023-07-31T05:49:43;22.10;;;7.72;;
51326;SDS011;37412;52.836;6.362;2023-07-31T05:52:29;23.60;;;8.00;;
51326;SDS011;37412;52.836;6.362;2023-07-31T05:55:15;23.45;;;7.43;;
51326;SDS011;37412;52.836;6.362;2023-07-31T05:58:02;25.05;;;8.73;;
51326;SDS011;37412;52.836;6.362;2023-07-31T06:00:48;20.60;;;7.38;;
51326;SDS011;37412;52.836;6.362;2023-07-31T06:03:33;20.33;;;7.20;;
51326;SDS011;37412;52.836;6.362;2023-07-31T06:06:19;18.98;;;6.75;;
51326;SDS011;37412;52.836;6.362;2023-07-31T06:09:05;19.13;;;7.43;;
51326;SDS011;37412;52.836;6.362;2023-07-31T06:11:52;20.83;;;7.38;;
51326;SDS011;37412;52.836;6.362;2023-07-31T06:14:38;22.25;;;8.00;;
51326;SDS011;37412;52.836;6.362;2023-07-31T06:17:24;24.55;;;7.97;;
51326;SDS011;37412;52.836;6.362;2023-07-31T06:20:11;20.90;;;7.63;;
51326;SDS011;37412;52.836;6.362;2023-07-31T06:22:57;23.38;;;7.93;;
51326;SDS011;37412;52.836;6.362;2023-07-31T06:25:43;27.20;;;8.73;;
51326;SDS011;37412;52.836;6.362;2023-07-31T06:28:31;23.10;;;7.85;;
51326;SDS011;37412;52.836;6.362;2023-07-31T06:31:17;22.25;;;8.13;;
51326;SDS011;37412;52.836;6.362;2023-07-31T06:34:05;18.85;;;7.43;;
51326;SDS011;37412;52.836;6.362;2023-07-31T06:36:51;24.60;;;7.72;;
51326;SDS011;37412;52.836;6.362;2023-07-31T06:39:37;24.75;;;8.25;;
51326;SDS011;37412;52.836;6.362;2023-07-31T06:42:23;20.38;;;8.02;;
51326;SDS011;37412;52.836;6.362;2023-07-31T06:45:09;21.63;;;8.50;;
51326;SDS011;37412;52.836;6.362;2023-07-31T06:47:55;22.88;;;8.90;;
51326;SDS011;37412;52.836;6.362;2023-07-31T06:50:42;20.50;;;8.63;;
51326;SDS011;37412;52.836;6.362;2023-07-31T06:53:28;20.50;;;8.33;;
51326;SDS011;37412;52.836;6.362;2023-07-31T06:56:14;16.08;;;7.20;;
51326;SDS011;37412;52.836;6.362;2023-07-31T06:59:00;14.85;;;6.68;;
51326;SDS011;37412;52.836;6.362;2023-07-31T07:01:46;13.38;;;5.97;;
51326;SDS011;37412;52.836;6.362;2023-07-31T07:04:32;11.38;;;5.80;;
51326;SDS011;37412;52.836;6.362;2023-07-31T07:07:18;10.38;;;5.32;;
51326;SDS011;37412;52.836;6.362;2023-07-31T07:10:04;10.40;;;4.90;;
51326;SDS011;37412;52.836;6.362;2023-07-31T07:12:50;10.77;;;5.35;;
51326;SDS011;37412;52.836;6.362;2023-07-31T07:15:36;9.32;;;4.60;;
51326;SDS011;37412;52.836;6.362;2023-07-31T07:18:22;9.10;;;4.20;;
51326;SDS011;37412;52.836;6.362;2023-07-31T07:21:08;8.87;;;4.00;;
51326;SDS011;37412;52.836;6.362;2023-07-31T07:23:54;8.75;;;4.25;;
51326;SDS011;37412;52.836;6.362;2023-07-31T07:26:43;8.03;;;4.10;;
51326;SDS011;37412;52.836;6.362;2023-07-31T07:29:29;7.88;;;3.80;;
51326;SDS011;37412;52.836;6.362;2023-07-31T07:32:15;7.15;;;3.70;;
51326;SDS011;37412;52.836;6.362;2023-07-31T07:35:04;7.25;;;3.85;;
51326;SDS011;37412;52.836;6.362;2023-07-31T07:37:50;6.55;;;3.17;;
51326;SDS011;37412;52.836;6.362;2023-07-31T07:40:39;6.03;;;3.60;;
51326;SDS011;37412;52.836;6.362;2023-07-31T07:43:25;4.33;;;3.07;;
51326;SDS011;37412;52.836;6.362;2023-07-31T07:46:14;7.65;;;2.78;;
51326;SDS011;37412;52.836;6.362;2023-07-31T07:49:00;6.43;;;3.20;;
51326;SDS011;37412;52.836;6.362;2023-07-31T07:51:46;7.13;;;3.08;;
51326;SDS011;37412;52.836;6.362;2023-07-31T07:54:37;4.80;;;2.83;;
51326;SDS011;37412;52.836;6.362;2023-07-31T07:57:23;4.45;;;2.78;;
51326;SDS011;37412;52.836;6.362;2023-07-31T08:00:09;5.47;;;2.55;;
51326;SDS011;37412;52.836;6.362;2023-07-31T08:02:55;4.32;;;2.40;;
51326;SDS011;37412;52.836;6.362;2023-07-31T08:05:43;4.25;;;2.45;;
51326;SDS011;37412;52.836;6.362;2023-07-31T08:08:30;5.13;;;2.50;;
51326;SDS011;37412;52.836;6.362;2023-07-31T08:11:16;4.37;;;2.57;;
51326;SDS011;37412;52.836;6.362;2023-07-31T08:14:01;4.28;;;2.30;;
51326;SDS011;37412;52.836;6.362;2023-07-31T08:16:48;3.20;;;2.20;;
51326;SDS011;37412;52.836;6.362;2023-07-31T08:19:33;3.85;;;2.30;;
51326;SDS011;37412;52.836;6.362;2023-07-31T08:22:19;3.15;;;2.30;;
51326;SDS011;37412;52.836;6.362;2023-07-31T08:25:07;2.95;;;1.90;;
51326;SDS011;37412;52.836;6.362;2023-07-31T08:27:53;3.58;;;2.38;;
51326;SDS011;37412;52.836;6.362;2023-07-31T08:30:39;3.22;;;2.17;;
51326;SDS011;37412;52.836;6.362;2023-07-31T08:33:25;2.87;;;2.00;;
51326;SDS011;37412;52.836;6.362;2023-07-31T08:36:11;3.45;;;2.13;;
51326;SDS011;37412;52.836;6.362;2023-07-31T08:38:57;2.77;;;2.00;;
51326;SDS011;37412;52.836;6.362;2023-07-31T08:41:43;2.80;;;1.98;;
51326;SDS011;37412;52.836;6.362;2023-07-31T08:44:29;1.98;;;1.67;;
51326;SDS011;37412;52.836;6.362;2023-07-31T08:47:17;2.42;;;1.80;;
51326;SDS011;37412;52.836;6.362;2023-07-31T08:50:05;2.50;;;1.58;;
51326;SDS011;37412;52.836;6.362;2023-07-31T08:52:51;1.85;;;1.50;;
51326;SDS011;37412;52.836;6.362;2023-07-31T08:55:38;2.17;;;1.67;;
51326;SDS011;37412;52.836;6.362;2023-07-31T08:58:24;2.10;;;1.50;;
51326;SDS011;37412;52.836;6.362;2023-07-31T09:01:12;1.60;;;1.20;;
51326;SDS011;37412;52.836;6.362;2023-07-31T09:04:00;1.30;;;1.20;;
51326;SDS011;37412;52.836;6.362;2023-07-31T09:06:49;1.90;;;1.30;;
51326;SDS011;37412;52.836;6.362;2023-07-31T09:09:38;1.50;;;1.30;;
51326;SDS011;37412;52.836;6.362;2023-07-31T09:12:25;1.70;;;1.20;;
51326;SDS011;37412;52.836;6.362;2023-07-31T09:15:11;1.60;;;1.25;;
51326;SDS011;37412;52.836;6.362;2023-07-31T09:18:00;1.52;;;1.13;;
51326;SDS011;37412;52.836;6.362;2023-07-31T09:21:00;1.55;;;1.10;;
51326;SDS011;37412;52.836;6.362;2023-07-31T09:23:49;1.42;;;1.10;;
51326;SDS011;37412;52.836;6.362;2023-07-31T09:26:39;1.50;;;1.08;;
51326;SDS011;37412;52.836;6.362;2023-07-31T09:29:25;1.37;;;1.00;;
51326;SDS011;37412;52.836;6.362;2023-07-31T09:32:16;1.20;;;0.93;;
51326;SDS011;37412;52.836;6.362;2023-07-31T09:35:12;1.20;;;1.00;;
51326;SDS011;37412;52.836;6.362;2023-07-31T09:38:03;1.10;;;1.00;;
51326;SDS011;37412;52.836;6.362;2023-07-31T09:40:51;1.65;;;1.10;;
51326;SDS011;37412;52.836;6.362;2023-07-31T09:43:37;1.45;;;1.00;;
51326;SDS011;37412;52.836;6.362;2023-07-31T09:46:23;1.30;;;1.10;;
51326;SDS011;37412;52.836;6.362;2023-07-31T09:49:13;1.38;;;1.20;;
51326;SDS011;37412;52.836;6.362;2023-07-31T09:51:59;1.10;;;1.00;;
51326;SDS011;37412;52.836;6.362;2023-07-31T09:54:45;1.88;;;1.15;;
51326;SDS011;37412;52.836;6.362;2023-07-31T09:57:31;1.25;;;1.10;;
51326;SDS011;37412;52.836;6.362;2023-07-31T10:00:19;1.60;;;1.00;;
51326;SDS011;37412;52.836;6.362;2023-07-31T10:03:08;1.48;;;1.10;;
51326;SDS011;37412;52.836;6.362;2023-07-31T10:05:55;1.67;;;1.20;;
51326;SDS011;37412;52.836;6.362;2023-07-31T10:08:42;1.30;;;1.20;;
51326;SDS011;37412;52.836;6.362;2023-07-31T10:11:31;1.40;;;1.00;;
51326;SDS011;37412;52.836;6.362;2023-07-31T10:14:21;1.08;;;0.95;;
51326;SDS011;37412;52.836;6.362;2023-07-31T10:17:09;1.73;;;1.10;;
51326;SDS011;37412;52.836;6.362;2023-07-31T10:19:56;1.02;;;0.93;;
51326;SDS011;37412;52.836;6.362;2023-07-31T10:22:45;1.00;;;1.00;;
51326;SDS011;37412;52.836;6.362;2023-07-31T10:25:31;1.10;;;1.00;;
51326;SDS011;37412;52.836;6.362;2023-07-31T10:28:18;1.48;;;0.70;;
51326;SDS011;37412;52.836;6.362;2023-07-31T10:31:04;1.98;;;0.70;;
51326;SDS011;37412;52.836;6.362;2023-07-31T10:33:51;1.70;;;0.65;;
51326;SDS011;37412;52.836;6.362;2023-07-31T10:36:39;1.73;;;0.60;;
51326;SDS011;37412;52.836;6.362;2023-07-31T10:39:37;2.25;;;0.65;;
51326;SDS011;37412;52.836;6.362;2023-07-31T10:42:34;1.10;;;0.50;;
51326;SDS011;37412;52.836;6.362;2023-07-31T10:45:25;1.58;;;0.75;;
51326;SDS011;37412;52.836;6.362;2023-07-31T10:48:15;1.98;;;0.50;;
51326;SDS011;37412;52.836;6.362;2023-07-31T10:51:04;2.38;;;0.52;;
51326;SDS011;37412;52.836;6.362;2023-07-31T10:53:53;2.30;;;0.70;;
51326;SDS011;37412;52.836;6.362;2023-07-31T10:57:21;1.60;;;0.45;;
51326;SDS011;37412;52.836;6.362;2023-07-31T11:00:17;0.80;;;0.40;;
51326;SDS011;37412;52.836;6.362;2023-07-31T11:08:45;1.00;;;0.83;;
51326;SDS011;37412;52.836;6.362;2023-07-31T11:11:32;1.65;;;0.90;;
51326;SDS011;37412;52.836;6.362;2023-07-31T11:14:19;1.90;;;1.20;;
51326;SDS011;37412;52.836;6.362;2023-07-31T11:17:06;2.23;;;1.00;;
51326;SDS011;37412;52.836;6.362;2023-07-31T11:19:52;1.75;;;0.77;;
51326;SDS011;37412;52.836;6.362;2023-07-31T11:22:38;1.87;;;0.80;;
51326;SDS011;37412;52.836;6.362;2023-07-31T11:25:24;2.22;;;0.90;;
51326;SDS011;37412;52.836;6.362;2023-07-31T11:28:11;4.07;;;1.10;;
51326;SDS011;37412;52.836;6.362;2023-07-31T11:30:59;5.57;;;1.20;;
51326;SDS011;37412;52.836;6.362;2023-07-31T11:33:46;3.78;;;1.35;;
51326;SDS011;37412;52.836;6.362;2023-07-31T11:36:32;2.40;;;1.10;;
51326;SDS011;37412;52.836;6.362;2023-07-31T11:39:18;3.55;;;1.30;;
51326;SDS011;37412;52.836;6.362;2023-07-31T11:42:04;4.50;;;1.80;;
51326;SDS011;37412;52.836;6.362;2023-07-31T11:44:50;6.15;;;2.30;;
51326;SDS011;37412;52.836;6.362;2023-07-31T11:47:36;6.35;;;2.75;;
51326;SDS011;37412;52.836;6.362;2023-07-31T11:50:23;5.82;;;2.90;;
51326;SDS011;37412;52.836;6.362;2023-07-31T11:53:12;7.90;;;2.80;;
51326;SDS011;37412;52.836;6.362;2023-07-31T11:55:59;6.97;;;2.92;;
51326;SDS011;37412;52.836;6.362;2023-07-31T11:58:49;6.60;;;3.00;;
51326;SDS011;37412;52.836;6.362;2023-07-31T12:01:38;8.02;;;2.78;;
51326;SDS011;37412;52.836;6.362;2023-07-31T12:04:26;4.68;;;1.77;;
51326;SDS011;37412;52.836;6.362;2023-07-31T12:07:50;3.42;;;1.33;;
51326;SDS011;37412;52.836;6.362;2023-07-31T12:10:46;3.50;;;1.55;;
51326;SDS011;37412;52.836;6.362;2023-07-31T12:13:37;1.80;;;1.10;;
51326;SDS011;37412;52.836;6.362;2023-07-31T12:16:27;1.75;;;0.85;;
51326;SDS011;37412;52.836;6.362;2023-07-31T12:19:27;2.22;;;0.80;;
51326;SDS011;37412;52.836;6.362;2023-07-31T12:22:22;2.33;;;0.95;;
51326;SDS011;37412;52.836;6.362;2023-07-31T12:28:58;3.38;;;1.50;;
51326;SDS011;37412;52.836;6.362;2023-07-31T12:31:44;2.65;;;1.50;;
51326;SDS011;37412;52.836;6.362;2023-07-31T12:34:30;4.10;;;1.70;;
51326;SDS011;37412;52.836;6.362;2023-07-31T12:37:16;7.18;;;2.30;;
51326;SDS011;37412;52.836;6.362;2023-07-31T12:40:02;4.97;;;2.20;;
51326;SDS011;37412;52.836;6.362;2023-07-31T12:42:49;7.82;;;2.60;;
51326;SDS011;37412;52.836;6.362;2023-07-31T12:45:36;7.43;;;3.00;;
51326;SDS011;37412;52.836;6.362;2023-07-31T12:48:22;8.20;;;3.43;;
51326;SDS011;37412;52.836;6.362;2023-07-31T12:51:08;9.25;;;3.60;;
51326;SDS011;37412;52.836;6.362;2023-07-31T12:53:54;9.97;;;3.53;;
51326;SDS011;37412;52.836;6.362;2023-07-31T12:56:40;7.80;;;3.28;;
51326;SDS011;37412;52.836;6.362;2023-07-31T12:59:26;7.70;;;3.45;;
51326;SDS011;37412;52.836;6.362;2023-07-31T13:02:12;8.30;;;3.22;;
51326;SDS011;37412;52.836;6.362;2023-07-31T13:04:58;9.15;;;3.55;;
51326;SDS011;37412;52.836;6.362;2023-07-31T13:07:43;9.03;;;3.40;;
51326;SDS011;37412;52.836;6.362;2023-07-31T13:10:29;7.68;;;3.05;;
51326;SDS011;37412;52.836;6.362;2023-07-31T13:13:15;8.48;;;3.10;;
51326;SDS011;37412;52.836;6.362;2023-07-31T13:16:01;9.20;;;3.40;;
51326;SDS011;37412;52.836;6.362;2023-07-31T13:18:47;8.02;;;2.97;;
51326;SDS011;37412;52.836;6.362;2023-07-31T13:21:33;8.87;;;3.30;;
51326;SDS011;37412;52.836;6.362;2023-07-31T13:24:21;10.02;;;3.15;;
51326;SDS011;37412;52.836;6.362;2023-07-31T13:27:07;8.13;;;2.72;;
51326;SDS011;37412;52.836;6.362;2023-07-31T13:29:53;11.15;;;3.05;;
51326;SDS011;37412;52.836;6.362;2023-07-31T13:32:39;8.25;;;3.05;;
51326;SDS011;37412;52.836;6.362;2023-07-31T13:35:25;9.88;;;3.03;;
51326;SDS011;37412;52.836;6.362;2023-07-31T13:38:11;12.00;;;3.27;;
51326;SDS011;37412;52.836;6.362;2023-07-31T13:40:57;7.30;;;2.85;;
51326;SDS011;37412;52.836;6.362;2023-07-31T13:43:43;11.27;;;2.83;;
51326;SDS011;37412;52.836;6.362;2023-07-31T13:46:29;8.15;;;2.78;;
51326;SDS011;37412;52.836;6.362;2023-07-31T13:49:15;8.27;;;2.80;;
51326;SDS011;37412;52.836;6.362;2023-07-31T13:52:01;8.50;;;2.60;;
51326;SDS011;37412;52.836;6.362;2023-07-31T13:54:47;6.97;;;2.70;;
51326;SDS011;37412;52.836;6.362;2023-07-31T13:57:33;8.52;;;3.38;;
51326;SDS011;37412;52.836;6.362;2023-07-31T14:00:20;8.23;;;3.17;;
51326;SDS011;37412;52.836;6.362;2023-07-31T14:03:06;7.47;;;2.97;;
51326;SDS011;37412;52.836;6.362;2023-07-31T14:05:52;7.28;;;3.20;;
51326;SDS011;37412;52.836;6.362;2023-07-31T14:08:38;7.90;;;3.60;;
51326;SDS011;37412;52.836;6.362;2023-07-31T14:11:24;9.00;;;3.20;;
51326;SDS011;37412;52.836;6.362;2023-07-31T14:14:11;8.25;;;3.22;;
51326;SDS011;37412;52.836;6.362;2023-07-31T14:16:57;8.93;;;3.30;;
51326;SDS011;37412;52.836;6.362;2023-07-31T14:19:43;8.53;;;3.70;;
51326;SDS011;37412;52.836;6.362;2023-07-31T14:22:29;9.18;;;3.40;;
51326;SDS011;37412;52.836;6.362;2023-07-31T14:25:16;9.15;;;3.42;;
51326;SDS011;37412;52.836;6.362;2023-07-31T14:28:01;6.72;;;3.00;;
51326;SDS011;37412;52.836;6.362;2023-07-31T14:30:47;6.55;;;3.40;;
51326;SDS011;37412;52.836;6.362;2023-07-31T14:33:33;7.70;;;3.03;;
51326;SDS011;37412;52.836;6.362;2023-07-31T14:36:19;9.50;;;3.27;;
51326;SDS011;37412;52.836;6.362;2023-07-31T14:39:05;7.15;;;3.05;;
51326;SDS011;37412;52.836;6.362;2023-07-31T14:41:51;7.00;;;2.63;;
51326;SDS011;37412;52.836;6.362;2023-07-31T14:44:37;6.10;;;2.53;;
51326;SDS011;37412;52.836;6.362;2023-07-31T14:47:23;6.75;;;2.55;;
51326;SDS011;37412;52.836;6.362;2023-07-31T14:50:09;7.80;;;2.70;;
51326;SDS011;37412;52.836;6.362;2023-07-31T14:52:55;6.10;;;2.80;;
51326;SDS011;37412;52.836;6.362;2023-07-31T14:55:41;7.53;;;2.88;;
51326;SDS011;37412;52.836;6.362;2023-07-31T14:58:27;7.55;;;2.80;;
51326;SDS011;37412;52.836;6.362;2023-07-31T15:01:13;5.78;;;2.60;;
51326;SDS011;37412;52.836;6.362;2023-07-31T15:03:59;7.67;;;2.93;;
51326;SDS011;37412;52.836;6.362;2023-07-31T15:06:45;7.38;;;2.70;;
51326;SDS011;37412;52.836;6.362;2023-07-31T15:09:31;6.80;;;2.53;;
51326;SDS011;37412;52.836;6.362;2023-07-31T15:12:17;7.50;;;2.78;;
51326;SDS011;37412;52.836;6.362;2023-07-31T15:15:04;6.60;;;2.35;;
51326;SDS011;37412;52.836;6.362;2023-07-31T15:17:50;5.75;;;2.50;;
51326;SDS011;37412;52.836;6.362;2023-07-31T15:20:36;7.45;;;2.50;;
51326;SDS011;37412;52.836;6.362;2023-07-31T15:23:22;5.50;;;2.33;;
51326;SDS011;37412;52.836;6.362;2023-07-31T15:26:09;6.35;;;2.00;;
51326;SDS011;37412;52.836;6.362;2023-07-31T15:28:55;7.22;;;2.30;;
51326;SDS011;37412;52.836;6.362;2023-07-31T15:31:47;4.35;;;2.08;;
51326;SDS011;37412;52.836;6.362;2023-07-31T15:34:33;6.20;;;2.50;;
51326;SDS011;37412;52.836;6.362;2023-07-31T15:37:19;6.77;;;2.40;;
51326;SDS011;37412;52.836;6.362;2023-07-31T15:40:05;4.72;;;2.20;;
51326;SDS011;37412;52.836;6.362;2023-07-31T15:42:51;6.15;;;1.98;;
51326;SDS011;37412;52.836;6.362;2023-07-31T15:45:37;5.22;;;2.58;;
51326;SDS011;37412;52.836;6.362;2023-07-31T15:48:23;6.75;;;2.80;;
51326;SDS011;37412;52.836;6.362;2023-07-31T15:51:09;5.15;;;2.60;;
51326;SDS011;37412;52.836;6.362;2023-07-31T15:53:55;5.68;;;2.90;;
51326;SDS011;37412;52.836;6.362;2023-07-31T15:56:41;5.18;;;2.70;;
51326;SDS011;37412;52.836;6.362;2023-07-31T15:59:27;4.37;;;2.57;;
51326;SDS011;37412;52.836;6.362;2023-07-31T16:02:13;5.13;;;2.67;;
51326;SDS011;37412;52.836;6.362;2023-07-31T16:04:59;4.93;;;2.75;;
51326;SDS011;37412;52.836;6.362;2023-07-31T16:07:45;5.60;;;3.33;;
51326;SDS011;37412;52.836;6.362;2023-07-31T16:10:31;5.07;;;3.60;;
51326;SDS011;37412;52.836;6.362;2023-07-31T16:13:17;6.38;;;3.50;;
51326;SDS011;37412;52.836;6.362;2023-07-31T16:16:03;5.32;;;3.58;;
51326;SDS011;37412;52.836;6.362;2023-07-31T16:18:49;5.20;;;3.33;;
51326;SDS011;37412;52.836;6.362;2023-07-31T16:21:35;4.93;;;3.25;;
51326;SDS011;37412;52.836;6.362;2023-07-31T16:24:21;5.13;;;3.08;;
51326;SDS011;37412;52.836;6.362;2023-07-31T16:27:07;4.22;;;2.85;;
51326;SDS011;37412;52.836;6.362;2023-07-31T16:29:53;4.03;;;2.95;;
51326;SDS011;37412;52.836;6.362;2023-07-31T16:32:39;4.00;;;2.70;;
51326;SDS011;37412;52.836;6.362;2023-07-31T16:35:25;4.88;;;2.88;;
51326;SDS011;37412;52.836;6.362;2023-07-31T16:38:11;5.03;;;2.95;;
51326;SDS011;37412;52.836;6.362;2023-07-31T16:40:56;5.68;;;2.83;;
51326;SDS011;37412;52.836;6.362;2023-07-31T16:43:42;4.78;;;2.83;;
51326;SDS011;37412;52.836;6.362;2023-07-31T16:46:28;3.77;;;2.70;;
51326;SDS011;37412;52.836;6.362;2023-07-31T16:49:16;4.03;;;2.70;;
51326;SDS011;37412;52.836;6.362;2023-07-31T16:52:02;4.97;;;3.00;;
51326;SDS011;37412;52.836;6.362;2023-07-31T16:54:48;4.22;;;2.67;;